sensor_id;sensor_type;location;lat;lon;timestamp;temperature;humidity
22360;DHT22;11347;52.030;4.690;2023-06-10T00:00:43;22.40;48.20
22360;DHT22;11347;52.030;4.690;2023-06-10T00:03:09;22.40;48.50
22360;DHT22;11347;52.030;4.690;2023-06-10T00:05:35;22.30;48.50
22360;DHT22;11347;52.030;4.690;2023-06-10T00:08:01;22.30;48.40
22360;DHT22;11347;52.030;4.690;2023-06-10T00:10:35;22.30;49.20
22360;DHT22;11347;52.030;4.690;2023-06-10T00:13:05;22.20;48.60
22360;DHT22;11347;52.030;4.690;2023-06-10T00:15:34;22.20;49.10
22360;DHT22;11347;52.030;4.690;2023-06-10T00:18:01;22.10;49.10
22360;DHT22;11347;52.030;4.690;2023-06-10T00:20:29;22.10;49.80
22360;DHT22;11347;52.030;4.690;2023-06-10T00:22:55;22.10;49.50
22360;DHT22;11347;52.030;4.690;2023-06-10T00:25:22;22.00;49.80
22360;DHT22;11347;52.030;4.690;2023-06-10T00:27:48;22.00;50.40
22360;DHT22;11347;52.030;4.690;2023-06-10T00:30:14;22.00;50.40
22360;DHT22;11347;52.030;4.690;2023-06-10T00:32:39;21.90;50.30
22360;DHT22;11347;52.030;4.690;2023-06-10T00:35:05;21.90;50.30
22360;DHT22;11347;52.030;4.690;2023-06-10T00:37:32;21.90;50.30
22360;DHT22;11347;52.030;4.690;2023-06-10T00:40:00;21.80;50.20
22360;DHT22;11347;52.030;4.690;2023-06-10T00:42:25;21.80;50.20
22360;DHT22;11347;52.030;4.690;2023-06-10T00:44:51;21.80;50.20
22360;DHT22;11347;52.030;4.690;2023-06-10T00:47:17;21.70;50.00
22360;DHT22;11347;52.030;4.690;2023-06-10T00:49:44;21.70;50.70
22360;DHT22;11347;52.030;4.690;2023-06-10T00:52:10;21.60;51.10
22360;DHT22;11347;52.030;4.690;2023-06-10T00:54:37;21.60;50.00
22360;DHT22;11347;52.030;4.690;2023-06-10T00:57:04;21.50;50.40
22360;DHT22;11347;52.030;4.690;2023-06-10T00:59:31;21.50;49.80
22360;DHT22;11347;52.030;4.690;2023-06-10T01:01:57;21.50;49.90
22360;DHT22;11347;52.030;4.690;2023-06-10T01:04:23;21.50;49.80
22360;DHT22;11347;52.030;4.690;2023-06-10T01:07:17;21.40;49.80
22360;DHT22;11347;52.030;4.690;2023-06-10T01:10:09;21.40;49.70
22360;DHT22;11347;52.030;4.690;2023-06-10T01:15:17;21.30;49.60
22360;DHT22;11347;52.030;4.690;2023-06-10T01:18:00;21.30;49.60
22360;DHT22;11347;52.030;4.690;2023-06-10T01:20:28;21.20;49.50
22360;DHT22;11347;52.030;4.690;2023-06-10T01:22:58;21.20;49.50
22360;DHT22;11347;52.030;4.690;2023-06-10T01:25:24;21.20;49.50
22360;DHT22;11347;52.030;4.690;2023-06-10T01:28:14;21.20;49.50
22360;DHT22;11347;52.030;4.690;2023-06-10T01:33:29;21.20;49.50
22360;DHT22;11347;52.030;4.690;2023-06-10T01:35:57;21.20;49.60
22360;DHT22;11347;52.030;4.690;2023-06-10T01:38:26;21.10;50.20
22360;DHT22;11347;52.030;4.690;2023-06-10T01:40:53;21.00;49.30
22360;DHT22;11347;52.030;4.690;2023-06-10T01:43:21;21.00;49.60
22360;DHT22;11347;52.030;4.690;2023-06-10T01:45:47;21.00;50.40
22360;DHT22;11347;52.030;4.690;2023-06-10T01:48:13;21.00;50.00
22360;DHT22;11347;52.030;4.690;2023-06-10T01:50:38;21.00;50.10
22360;DHT22;11347;52.030;4.690;2023-06-10T01:53:04;21.00;50.00
22360;DHT22;11347;52.030;4.690;2023-06-10T01:55:33;20.90;50.10
22360;DHT22;11347;52.030;4.690;2023-06-10T01:57:58;20.90;49.60
22360;DHT22;11347;52.030;4.690;2023-06-10T02:00:24;20.80;49.90
22360;DHT22;11347;52.030;4.690;2023-06-10T02:02:50;20.80;49.70
22360;DHT22;11347;52.030;4.690;2023-06-10T02:05:16;20.80;49.40
22360;DHT22;11347;52.030;4.690;2023-06-10T02:07:42;20.80;49.80
22360;DHT22;11347;52.030;4.690;2023-06-10T02:10:08;20.70;50.00
22360;DHT22;11347;52.030;4.690;2023-06-10T02:12:36;20.70;50.00
22360;DHT22;11347;52.030;4.690;2023-06-10T02:15:01;20.70;50.30
22360;DHT22;11347;52.030;4.690;2023-06-10T02:17:27;20.70;50.90
22360;DHT22;11347;52.030;4.690;2023-06-10T02:19:53;20.60;51.60
22360;DHT22;11347;52.030;4.690;2023-06-10T02:22:20;20.60;51.80
22360;DHT22;11347;52.030;4.690;2023-06-10T02:24:46;20.60;52.40
22360;DHT22;11347;52.030;4.690;2023-06-10T02:27:12;20.60;52.90
22360;DHT22;11347;52.030;4.690;2023-06-10T02:29:37;20.60;52.80
22360;DHT22;11347;52.030;4.690;2023-06-10T02:32:03;20.50;53.00
22360;DHT22;11347;52.030;4.690;2023-06-10T02:34:29;20.50;53.00
22360;DHT22;11347;52.030;4.690;2023-06-10T02:36:55;20.40;53.20
22360;DHT22;11347;52.030;4.690;2023-06-10T02:39:22;20.30;53.10
22360;DHT22;11347;52.030;4.690;2023-06-10T02:41:47;20.40;53.50
22360;DHT22;11347;52.030;4.690;2023-06-10T02:44:13;20.30;53.60
22360;DHT22;11347;52.030;4.690;2023-06-10T02:46:38;20.20;54.20
22360;DHT22;11347;52.030;4.690;2023-06-10T02:49:04;20.20;54.30
22360;DHT22;11347;52.030;4.690;2023-06-10T02:51:29;20.20;55.10
22360;DHT22;11347;52.030;4.690;2023-06-10T02:53:55;20.10;54.80
22360;DHT22;11347;52.030;4.690;2023-06-10T02:56:20;20.20;55.10
22360;DHT22;11347;52.030;4.690;2023-06-10T02:58:47;20.10;54.70
22360;DHT22;11347;52.030;4.690;2023-06-10T03:01:14;20.10;54.60
22360;DHT22;11347;52.030;4.690;2023-06-10T03:03:39;20.00;54.50
22360;DHT22;11347;52.030;4.690;2023-06-10T03:06:09;20.00;54.20
22360;DHT22;11347;52.030;4.690;2023-06-10T03:08:35;20.00;54.20
22360;DHT22;11347;52.030;4.690;2023-06-10T03:11:01;20.00;53.70
22360;DHT22;11347;52.030;4.690;2023-06-10T03:13:27;20.00;53.70
22360;DHT22;11347;52.030;4.690;2023-06-10T03:15:53;20.00;53.70
22360;DHT22;11347;52.030;4.690;2023-06-10T03:18:18;20.00;54.40
22360;DHT22;11347;52.030;4.690;2023-06-10T03:20:44;19.90;53.90
22360;DHT22;11347;52.030;4.690;2023-06-10T03:23:10;19.90;54.70
22360;DHT22;11347;52.030;4.690;2023-06-10T03:25:35;19.90;54.00
22360;DHT22;11347;52.030;4.690;2023-06-10T03:28:01;19.80;53.80
22360;DHT22;11347;52.030;4.690;2023-06-10T03:30:27;19.80;53.50
22360;DHT22;11347;52.030;4.690;2023-06-10T03:32:53;19.80;53.50
22360;DHT22;11347;52.030;4.690;2023-06-10T03:35:19;19.80;53.50
22360;DHT22;11347;52.030;4.690;2023-06-10T03:37:44;19.80;53.50
22360;DHT22;11347;52.030;4.690;2023-06-10T03:40:10;19.80;53.50
22360;DHT22;11347;52.030;4.690;2023-06-10T03:42:36;19.70;53.80
22360;DHT22;11347;52.030;4.690;2023-06-10T03:45:02;19.70;53.80
22360;DHT22;11347;52.030;4.690;2023-06-10T03:47:34;19.60;54.30
22360;DHT22;11347;52.030;4.690;2023-06-10T03:50:01;19.60;54.80
22360;DHT22;11347;52.030;4.690;2023-06-10T03:52:28;19.60;54.90
22360;DHT22;11347;52.030;4.690;2023-06-10T03:54:54;19.50;53.60
22360;DHT22;11347;52.030;4.690;2023-06-10T03:57:21;19.50;53.60
22360;DHT22;11347;52.030;4.690;2023-06-10T03:59:47;19.50;53.60
22360;DHT22;11347;52.030;4.690;2023-06-10T04:02:12;19.50;54.50
22360;DHT22;11347;52.030;4.690;2023-06-10T04:04:38;19.50;54.20
22360;DHT22;11347;52.030;4.690;2023-06-10T04:07:07;19.60;54.20
22360;DHT22;11347;52.030;4.690;2023-06-10T04:09:34;19.60;53.80
22360;DHT22;11347;52.030;4.690;2023-06-10T04:11:59;19.60;53.90
22360;DHT22;11347;52.030;4.690;2023-06-10T04:14:25;19.60;54.50
22360;DHT22;11347;52.030;4.690;2023-06-10T04:16:51;19.60;54.30
22360;DHT22;11347;52.030;4.690;2023-06-10T04:19:16;19.60;54.30
22360;DHT22;11347;52.030;4.690;2023-06-10T04:21:42;19.70;55.20
22360;DHT22;11347;52.030;4.690;2023-06-10T04:24:08;19.70;54.00
22360;DHT22;11347;52.030;4.690;2023-06-10T04:26:35;19.70;54.10
22360;DHT22;11347;52.030;4.690;2023-06-10T04:29:01;19.80;55.10
22360;DHT22;11347;52.030;4.690;2023-06-10T04:31:26;19.80;55.50
22360;DHT22;11347;52.030;4.690;2023-06-10T04:33:53;19.90;54.70
22360;DHT22;11347;52.030;4.690;2023-06-10T04:36:18;19.80;54.40
22360;DHT22;11347;52.030;4.690;2023-06-10T04:38:44;19.80;54.30
22360;DHT22;11347;52.030;4.690;2023-06-10T04:41:09;19.90;54.00
22360;DHT22;11347;52.030;4.690;2023-06-10T04:43:35;19.90;53.90
22360;DHT22;11347;52.030;4.690;2023-06-10T04:46:01;19.90;54.00
22360;DHT22;11347;52.030;4.690;2023-06-10T04:48:26;19.90;53.70
22360;DHT22;11347;52.030;4.690;2023-06-10T04:50:52;20.00;54.10
22360;DHT22;11347;52.030;4.690;2023-06-10T04:53:18;20.00;54.30
22360;DHT22;11347;52.030;4.690;2023-06-10T04:55:43;20.00;54.10
22360;DHT22;11347;52.030;4.690;2023-06-10T04:58:09;20.00;54.20
